Indianapolis/Eagle Creek Airpark, Indiana
Current Conditions -  °F | °C
As of 7:53 PM on Saturday 25 Oct 2014 (Local Time) from KEYE Reporting Station
Clear Clear  
Wind Chill: 67°   Ceiling: Unl
Heat Index: 67°   Visibility: 10mi
Dew Point: 46°   Wind: 5mph
Humidity: 47%   Direction: 260°W
Pressure: 29.92"   Gusts: NA
Location:  39.83°N, 86.3°W
Report Text: KEYE 252353Z AUTO 26004KT 10SM CLR 19/08 A2992 RMK AO2 SLP131 T01940078 10244 20194 51001 $
Loading
Personal Weather Stations






























Interactive Weather Map
Tropical Storm Tracking
New forecast layout! Learn more

10-Day Weather Forecast

Advertisements
Track Severe Weather on mobile